Time;durP1;ratioP1;P1;durP2;ratioP2;P2;SDS_P1;SDS_P2;PMS_P1;PMS_P2;Temp;Humidity;BMP_temperature;BMP_pressure;BME280_temperature;BME280_humidity;BME280_pressure;Samples;Min_cycle;Max_cycle;Signal;HPM_P1;HPM_P2
2024/03/25 00:00:27;;;;;;;16.30;3.00;;;;;;;;;;5035619;28;20029;-75
2024/03/25 00:02:54;;;;;;;15.05;3.20;;;;;;;;;;5053263;28;20869;-75
2024/03/25 00:05:22;;;;;;;14.63;2.97;;;;;;;;;;5053472;28;20017;-75
2024/03/25 00:07:48;;;;;;;17.88;3.33;;;;;;;;;;5036870;28;20118;-75
2024/03/25 00:10:14;;;;;;;15.20;3.47;;;;;;;;;;5029895;28;20026;-75
2024/03/25 00:12:39;;;;;;;14.25;3.22;;;;;;;;;;5050762;28;20032;-74
2024/03/25 00:15:05;;;;;;;17.15;3.13;;;;;;;;;;5026377;28;20029;-75
2024/03/25 00:17:30;;;;;;;12.43;3.30;;;;;;;;;;5052911;28;20036;-85
2024/03/25 00:19:56;;;;;;;11.25;2.53;;;;;;;;;;5036463;28;20025;-84
2024/03/25 00:22:24;;;;;;;13.38;2.90;;;;;;;;;;5052620;28;20029;-85
2024/03/25 00:24:50;;;;;;;13.43;2.60;;;;;;;;;;5050850;28;20401;-84
2024/03/25 00:27:15;;;;;;;13.95;2.85;;;;;;;;;;5049669;28;20029;-84
2024/03/25 00:29:41;;;;;;;10.98;2.50;;;;;;;;;;5034929;28;20021;-84
2024/03/25 00:32:07;;;;;;;12.77;2.40;;;;;;;;;;5047006;28;20495;-84
2024/03/25 00:34:33;;;;;;;13.38;2.55;;;;;;;;;;5035188;28;20036;-84
2024/03/25 00:37:01;;;;;;;16.92;3.40;;;;;;;;;;5050643;28;20440;-84
2024/03/25 00:39:27;;;;;;;11.40;2.85;;;;;;;;;;5031778;28;20032;-84
2024/03/25 00:41:53;;;;;;;10.20;2.50;;;;;;;;;;5053111;28;20036;-84
2024/03/25 00:44:19;;;;;;;12.10;2.42;;;;;;;;;;5051518;28;20029;-84
2024/03/25 00:46:45;;;;;;;10.18;2.65;;;;;;;;;;5052904;28;20032;-84
2024/03/25 00:49:11;;;;;;;9.77;2.60;;;;;;;;;;5051642;28;20100;-84
2024/03/25 00:51:37;;;;;;;13.30;2.70;;;;;;;;;;5034530;28;20193;-84
2024/03/25 00:54:03;;;;;;;14.90;2.80;;;;;;;;;;5038580;28;20025;-84
2024/03/25 00:56:29;;;;;;;13.85;2.80;;;;;;;;;;5053315;28;20106;-84
2024/03/25 00:58:57;;;;;;;13.73;2.80;;;;;;;;;;5053826;28;20532;-84
2024/03/25 01:01:22;;;;;;;14.85;2.60;;;;;;;;;;5047518;28;20502;-84
2024/03/25 01:03:48;;;;;;;10.82;2.42;;;;;;;;;;5035545;28;20033;-84
2024/03/25 01:06:13;;;;;;;13.35;2.15;;;;;;;;;;5051028;28;20025;-84
2024/03/25 01:08:38;;;;;;;14.48;2.72;;;;;;;;;;5034974;28;20055;-84
2024/03/25 01:11:04;;;;;;;14.02;2.85;;;;;;;;;;5051847;28;20024;-84
2024/03/25 01:13:29;;;;;;;8.68;2.50;;;;;;;;;;5036884;28;20029;-84
2024/03/25 01:15:55;;;;;;;14.20;3.05;;;;;;;;;;5052377;28;20021;-83
2024/03/25 01:18:20;;;;;;;11.32;2.70;;;;;;;;;;5050031;28;20044;-84
2024/03/25 01:20:46;;;;;;;10.18;2.55;;;;;;;;;;5051844;28;20455;-84
2024/03/25 01:23:11;;;;;;;14.07;2.70;;;;;;;;;;5048176;28;20025;-84
2024/03/25 01:25:36;;;;;;;13.05;2.28;;;;;;;;;;5047165;28;20074;-84
2024/03/25 01:28:02;;;;;;;10.13;2.30;;;;;;;;;;5045310;28;20032;-75
2024/03/25 01:30:29;;;;;;;13.80;2.47;;;;;;;;;;5031673;28;20033;-75
2024/03/25 01:32:54;;;;;;;13.15;3.00;;;;;;;;;;5046345;28;20021;-75
2024/03/25 01:35:20;;;;;;;10.23;2.60;;;;;;;;;;5046789;28;20024;-75
2024/03/25 01:37:46;;;;;;;9.40;2.42;;;;;;;;;;5046787;28;20040;-75
2024/03/25 01:40:11;;;;;;;10.60;2.17;;;;;;;;;;5045645;28;20043;-75
2024/03/25 01:42:37;;;;;;;14.38;2.72;;;;;;;;;;5046794;28;20025;-75
2024/03/25 01:45:03;;;;;;;16.60;2.90;;;;;;;;;;5026748;28;20562;-75
2024/03/25 01:47:32;;;;;;;11.95;2.65;;;;;;;;;;5047086;28;20036;-75
2024/03/25 01:49:58;;;;;;;16.20;3.17;;;;;;;;;;5046560;28;20021;-75
2024/03/25 01:52:25;;;;;;;7.75;2.15;;;;;;;;;;5045412;28;20094;-75
2024/03/25 01:54:51;;;;;;;10.65;2.30;;;;;;;;;;5026968;28;20471;-75
2024/03/25 01:57:17;;;;;;;16.33;2.45;;;;;;;;;;5044137;28;20881;-74
2024/03/25 01:59:42;;;;;;;13.68;2.80;;;;;;;;;;5045386;28;20052;-75
2024/03/25 02:02:10;;;;;;;13.70;2.42;;;;;;;;;;5043330;28;20052;-75
2024/03/25 02:04:37;;;;;;;10.07;2.00;;;;;;;;;;5035246;28;20035;-75
2024/03/25 02:07:02;;;;;;;15.13;2.35;;;;;;;;;;5044734;28;20474;-74
2024/03/25 02:09:28;;;;;;;12.65;2.58;;;;;;;;;;5046007;28;20037;-75
2024/03/25 02:11:54;;;;;;;16.10;2.90;;;;;;;;;;5027042;28;20055;-75
2024/03/25 02:14:20;;;;;;;16.20;2.20;;;;;;;;;;5050141;28;20096;-74
2024/03/25 02:16:46;;;;;;;10.20;2.38;;;;;;;;;;5028096;28;20088;-75
2024/03/25 02:19:13;;;;;;;7.68;2.05;;;;;;;;;;5046372;28;20399;-75
2024/03/25 02:21:38;;;;;;;15.63;2.70;;;;;;;;;;5027044;28;20024;-75
2024/03/25 02:24:08;;;;;;;17.42;2.70;;;;;;;;;;5046377;28;20035;-75
2024/03/25 02:26:34;;;;;;;13.63;2.33;;;;;;;;;;5043228;28;20406;-75
2024/03/25 02:28:59;;;;;;;10.25;2.20;;;;;;;;;;5045827;28;20159;-75
2024/03/25 02:31:24;;;;;;;13.60;2.10;;;;;;;;;;5046265;28;20104;-75
2024/03/25 02:33:50;;;;;;;11.57;2.10;;;;;;;;;;5029976;28;20032;-74
2024/03/25 02:36:15;;;;;;;14.38;2.40;;;;;;;;;;5046431;28;20478;-75
2024/03/25 02:38:41;;;;;;;14.32;2.75;;;;;;;;;;5028222;28;20055;-75
2024/03/25 02:41:06;;;;;;;16.15;2.47;;;;;;;;;;5044847;28;20029;-75
2024/03/25 02:43:32;;;;;;;10.18;2.20;;;;;;;;;;5042505;28;20029;-75
2024/03/25 02:45:57;;;;;;;15.10;3.03;;;;;;;;;;5045997;28;20029;-75
2024/03/25 02:48:22;;;;;;;14.52;2.30;;;;;;;;;;5028376;28;20021;-75
2024/03/25 02:50:48;;;;;;;9.43;2.10;;;;;;;;;;5033056;28;20029;-75
2024/03/25 02:53:13;;;;;;;11.75;2.35;;;;;;;;;;5044709;28;20084;-75
2024/03/25 02:55:39;;;;;;;13.55;2.33;;;;;;;;;;5043440;28;20021;-75
2024/03/25 02:58:04;;;;;;;11.32;2.13;;;;;;;;;;5043760;28;20035;-75
2024/03/25 03:00:29;;;;;;;11.88;2.53;;;;;;;;;;5026340;28;20065;-75
2024/03/25 03:02:55;;;;;;;11.07;2.53;;;;;;;;;;5042656;28;20071;-75
2024/03/25 03:05:20;;;;;;;10.45;2.53;;;;;;;;;;5046103;28;20479;-75
2024/03/25 03:07:45;;;;;;;13.13;2.80;;;;;;;;;;5044438;28;20640;-75
2024/03/25 03:10:11;;;;;;;14.90;3.10;;;;;;;;;;5044263;28;20033;-75
2024/03/25 03:12:36;;;;;;;12.20;2.92;;;;;;;;;;5042450;28;20476;-75
2024/03/25 03:15:01;;;;;;;9.55;2.10;;;;;;;;;;5046473;28;20466;-75
2024/03/25 03:17:27;;;;;;;15.30;2.90;;;;;;;;;;5028628;28;20028;-75
2024/03/25 03:19:52;;;;;;;11.15;2.42;;;;;;;;;;5045029;28;20463;-75
2024/03/25 03:22:17;;;;;;;11.95;2.50;;;;;;;;;;5044435;28;20076;-75
2024/03/25 03:24:43;;;;;;;11.68;2.28;;;;;;;;;;5042577;28;20025;-75
2024/03/25 03:27:08;;;;;;;15.10;2.70;;;;;;;;;;5043871;28;20068;-75
2024/03/25 03:29:33;;;;;;;8.88;1.98;;;;;;;;;;5043268;28;20039;-75
2024/03/25 03:31:59;;;;;;;14.52;2.63;;;;;;;;;;5044499;28;20447;-75
2024/03/25 03:34:25;;;;;;;8.25;2.22;;;;;;;;;;5045297;28;20061;-75
2024/03/25 03:36:50;;;;;;;10.77;2.38;;;;;;;;;;5042633;28;20028;-75
2024/03/25 03:39:16;;;;;;;13.70;2.47;;;;;;;;;;5042437;28;20027;-75
2024/03/25 03:41:41;;;;;;;10.45;2.38;;;;;;;;;;5041054;28;20036;-75
2024/03/25 03:44:06;;;;;;;8.77;1.80;;;;;;;;;;5044165;28;20037;-75
2024/03/25 03:46:32;;;;;;;10.95;2.22;;;;;;;;;;5026469;28;20167;-75
2024/03/25 03:48:57;;;;;;;8.85;2.22;;;;;;;;;;5045073;28;20112;-75
2024/03/25 03:51:22;;;;;;;7.25;2.30;;;;;;;;;;5044042;28;20027;-75
2024/03/25 03:53:48;;;;;;;8.60;2.53;;;;;;;;;;5029107;28;20433;-75
2024/03/25 03:56:13;;;;;;;10.55;2.53;;;;;;;;;;5041824;28;20482;-75
2024/03/25 03:58:39;;;;;;;9.90;2.28;;;;;;;;;;5043528;28;20096;-75
2024/03/25 04:01:04;;;;;;;11.55;2.58;;;;;;;;;;5043728;28;20037;-75
2024/03/25 04:03:30;;;;;;;7.68;1.73;;;;;;;;;;5043561;28;20071;-75
2024/03/25 04:05:55;;;;;;;12.57;2.63;;;;;;;;;;5042940;28;20104;-75
2024/03/25 04:08:21;;;;;;;10.07;2.17;;;;;;;;;;5026789;28;20137;-75
2024/03/25 04:10:47;;;;;;;10.65;3.05;;;;;;;;;;5033765;28;20378;-75
2024/03/25 04:13:12;;;;;;;12.02;2.47;;;;;;;;;;5042743;28;20048;-75
2024/03/25 04:15:39;;;;;;;9.00;1.98;;;;;;;;;;5042647;28;20029;-75
2024/03/25 04:18:05;;;;;;;10.07;2.30;;;;;;;;;;5043649;28;20027;-75
2024/03/25 04:20:41;;;;;;;7.20;2.60;;;;;;;;;;5047975;28;20033;-75
2024/03/25 04:23:07;;;;;;;9.77;2.78;;;;;;;;;;5031212;28;20025;-75
2024/03/25 04:25:33;;;;;;;8.20;2.15;;;;;;;;;;5032555;28;20552;-75
2024/03/25 04:27:59;;;;;;;10.02;2.25;;;;;;;;;;5050422;28;20498;-75
2024/03/25 04:30:24;;;;;;;9.95;2.05;;;;;;;;;;5042608;28;20085;-75
2024/03/25 04:32:50;;;;;;;10.63;2.50;;;;;;;;;;5026003;28;20021;-75
2024/03/25 04:35:15;;;;;;;13.50;2.40;;;;;;;;;;5049874;28;20024;-75
2024/03/25 04:37:41;;;;;;;11.77;2.47;;;;;;;;;;5032979;28;20025;-75
2024/03/25 04:40:08;;;;;;;9.50;2.58;;;;;;;;;;5029536;28;20029;-75
2024/03/25 04:42:33;;;;;;;12.13;2.40;;;;;;;;;;5048346;28;20025;-75
2024/03/25 04:44:58;;;;;;;8.43;2.30;;;;;;;;;;5028458;28;20052;-75
2024/03/25 04:47:24;;;;;;;8.43;2.50;;;;;;;;;;5046529;28;20025;-75
2024/03/25 04:49:49;;;;;;;8.57;2.55;;;;;;;;;;5047825;28;20017;-75
2024/03/25 04:52:19;;;;;;;10.43;2.45;;;;;;;;;;5029328;28;20151;-75
2024/03/25 04:54:44;;;;;;;9.27;2.50;;;;;;;;;;5029049;28;20097;-75
2024/03/25 04:57:10;;;;;;;9.43;2.38;;;;;;;;;;5028386;28;20028;-75
2024/03/25 04:59:35;;;;;;;10.20;2.65;;;;;;;;;;5047745;28;20032;-75
2024/03/25 05:02:01;;;;;;;10.75;2.30;;;;;;;;;;5047480;28;20036;-75
2024/03/25 05:04:27;;;;;;;8.85;2.20;;;;;;;;;;5030958;28;20028;-75
2024/03/25 05:06:52;;;;;;;9.60;2.20;;;;;;;;;;5030077;28;20440;-75
2024/03/25 05:09:17;;;;;;;9.38;2.30;;;;;;;;;;5046971;28;20100;-75
2024/03/25 05:11:43;;;;;;;11.85;2.67;;;;;;;;;;5045783;28;20021;-75
2024/03/25 05:14:08;;;;;;;14.45;2.80;;;;;;;;;;5047195;28;20033;-75
2024/03/25 05:16:34;;;;;;;10.60;2.60;;;;;;;;;;5047101;28;20024;-75
2024/03/25 05:18:59;;;;;;;11.95;2.63;;;;;;;;;;5046695;28;20051;-75
2024/03/25 05:21:24;;;;;;;8.73;2.50;;;;;;;;;;5030263;28;20036;-75
2024/03/25 05:23:50;;;;;;;9.77;2.75;;;;;;;;;;5039825;28;20167;-75
2024/03/25 05:26:15;;;;;;;13.88;3.25;;;;;;;;;;5031495;28;20033;-75
2024/03/25 05:28:41;;;;;;;17.77;2.65;;;;;;;;;;5052818;28;20029;-75
2024/03/25 05:31:09;;;;;;;10.32;2.40;;;;;;;;;;5048116;28;20017;-75
2024/03/25 05:33:35;;;;;;;10.20;2.50;;;;;;;;;;5052248;28;20805;-75
2024/03/25 05:36:01;;;;;;;7.88;2.38;;;;;;;;;;5036320;28;20020;-75
2024/03/25 05:38:27;;;;;;;12.40;2.63;;;;;;;;;;5032333;28;20032;-75
2024/03/25 05:40:52;;;;;;;7.93;2.70;;;;;;;;;;5049131;28;20028;-75
2024/03/25 05:43:19;;;;;;;10.60;2.75;;;;;;;;;;5050646;28;20017;-75
2024/03/25 05:45:51;;;;;;;12.25;3.00;;;;;;;;;;5046610;28;20577;-75
2024/03/25 05:48:16;;;;;;;12.18;2.72;;;;;;;;;;5045210;28;20031;-75
2024/03/25 05:50:42;;;;;;;10.82;2.80;;;;;;;;;;5048766;28;20036;-75
2024/03/25 05:53:08;;;;;;;7.88;2.78;;;;;;;;;;5039867;28;20059;-75
2024/03/25 05:55:33;;;;;;;12.38;2.95;;;;;;;;;;5027003;28;20364;-75
2024/03/25 05:57:59;;;;;;;9.48;2.60;;;;;;;;;;5051669;28;20090;-75
2024/03/25 06:00:24;;;;;;;11.32;2.85;;;;;;;;;;5049371;28;20449;-75
2024/03/25 06:02:49;;;;;;;11.68;3.88;;;;;;;;;;5032660;28;20383;-75
2024/03/25 06:05:15;;;;;;;12.60;3.20;;;;;;;;;;5033620;28;20028;-75
2024/03/25 06:07:40;;;;;;;10.00;3.20;;;;;;;;;;5031984;28;20509;-75
2024/03/25 06:10:06;;;;;;;10.63;3.58;;;;;;;;;;5030538;28;20017;-85
2024/03/25 06:12:31;;;;;;;11.82;3.80;;;;;;;;;;5050213;28;20074;-86
2024/03/25 06:14:56;;;;;;;11.52;3.78;;;;;;;;;;5029202;28;20050;-86
2024/03/25 06:17:22;;;;;;;11.48;3.63;;;;;;;;;;5041917;28;20028;-86
2024/03/25 06:19:47;;;;;;;12.52;3.97;;;;;;;;;;5030669;28;20490;-86
2024/03/25 06:22:12;;;;;;;14.93;4.47;;;;;;;;;;5047835;28;20768;-85
2024/03/25 06:24:38;;;;;;;14.25;4.82;;;;;;;;;;5048339;28;20382;-85
2024/03/25 06:27:03;;;;;;;11.57;4.40;;;;;;;;;;5037293;28;20047;-85
2024/03/25 06:29:29;;;;;;;13.48;4.18;;;;;;;;;;5045662;28;20033;-86
2024/03/25 06:34:38;;;;;;;12.38;6.13;;;;;;;;;;5046067;28;20036;-85
2024/03/25 06:37:04;;;;;;;16.35;5.75;;;;;;;;;;5049813;28;20025;-85
2024/03/25 06:39:29;;;;;;;19.38;6.80;;;;;;;;;;5046275;28;20501;-87
2024/03/25 06:41:55;;;;;;;18.10;6.80;;;;;;;;;;5031267;28;20033;-87
2024/03/25 06:44:20;;;;;;;17.88;6.68;;;;;;;;;;5050428;28;20386;-86
2024/03/25 06:46:45;;;;;;;17.10;7.53;;;;;;;;;;5028945;28;20402;-86
2024/03/25 06:49:10;;;;;;;18.08;7.90;;;;;;;;;;5051410;28;20040;-86
2024/03/25 06:51:36;;;;;;;15.32;7.50;;;;;;;;;;5050727;28;20378;-86
2024/03/25 06:54:01;;;;;;;16.83;7.47;;;;;;;;;;5026410;28;20025;-87
2024/03/25 06:56:27;;;;;;;18.77;8.18;;;;;;;;;;5032709;28;20033;-86
2024/03/25 06:58:52;;;;;;;16.25;8.02;;;;;;;;;;5044528;28;20036;-86
2024/03/25 07:01:18;;;;;;;19.17;7.93;;;;;;;;;;5031274;28;20029;-85
2024/03/25 07:03:43;;;;;;;19.38;8.30;;;;;;;;;;5033231;28;20028;-86
2024/03/25 07:06:09;;;;;;;17.23;8.70;;;;;;;;;;5032997;28;20521;-86
2024/03/25 07:08:34;;;;;;;17.52;8.18;;;;;;;;;;5048485;28;20072;-86
2024/03/25 07:10:59;;;;;;;15.38;8.43;;;;;;;;;;5033816;28;20025;-86
2024/03/25 07:13:25;;;;;;;20.15;9.45;;;;;;;;;;5037173;28;20396;-86
2024/03/25 07:15:50;;;;;;;17.63;9.05;;;;;;;;;;5030157;28;20044;-85
2024/03/25 07:18:16;;;;;;;16.42;9.15;;;;;;;;;;5032969;28;20021;-85
2024/03/25 07:20:43;;;;;;;19.05;8.73;;;;;;;;;;5048723;28;20071;-86
2024/03/25 07:23:09;;;;;;;19.50;8.57;;;;;;;;;;5049101;28;20040;-85
2024/03/25 07:25:34;;;;;;;16.85;8.70;;;;;;;;;;5033006;28;20033;-85
2024/03/25 07:28:00;;;;;;;21.88;9.68;;;;;;;;;;5051244;28;20040;-85
2024/03/25 07:30:28;;;;;;;21.95;8.65;;;;;;;;;;5050973;28;20021;-85
2024/03/25 07:32:57;;;;;;;18.23;9.23;;;;;;;;;;5034614;28;20025;-85
2024/03/25 07:35:23;;;;;;;20.13;9.30;;;;;;;;;;5049503;28;20386;-85
2024/03/25 07:37:51;;;;;;;19.42;9.07;;;;;;;;;;5032098;28;20503;-84
2024/03/25 07:40:21;;;;;;;18.75;9.20;;;;;;;;;;5032775;28;20056;-85
2024/03/25 07:42:47;;;;;;;17.20;9.05;;;;;;;;;;5049184;28;20114;-85
2024/03/25 07:45:12;;;;;;;18.05;9.02;;;;;;;;;;5048583;28;20067;-86
2024/03/25 07:47:38;;;;;;;21.73;8.90;;;;;;;;;;5023709;28;20032;-86
2024/03/25 07:50:04;;;;;;;17.40;9.00;;;;;;;;;;5044301;28;20057;-86
2024/03/25 07:52:29;;;;;;;18.38;9.70;;;;;;;;;;5043176;28;20455;-86
2024/03/25 07:54:55;;;;;;;21.17;10.20;;;;;;;;;;5035980;28;20075;-86
2024/03/25 07:57:20;;;;;;;25.67;10.02;;;;;;;;;;5036200;28;20027;-87
2024/03/25 07:59:46;;;;;;;15.82;8.77;;;;;;;;;;5055807;28;20514;-85
2024/03/25 08:02:11;;;;;;;18.17;9.60;;;;;;;;;;5037307;28;20032;-86
2024/03/25 08:04:37;;;;;;;18.25;9.40;;;;;;;;;;5033504;28;20021;-84
2024/03/25 08:07:02;;;;;;;18.13;8.93;;;;;;;;;;5035239;28;20114;-85
2024/03/25 08:09:28;;;;;;;18.48;9.50;;;;;;;;;;5035990;28;20043;-86
2024/03/25 08:11:53;;;;;;;22.60;9.35;;;;;;;;;;5031468;28;20035;-86
2024/03/25 08:14:19;;;;;;;19.10;9.40;;;;;;;;;;5051915;28;20108;-86
2024/03/25 08:16:44;;;;;;;19.67;9.38;;;;;;;;;;5049879;28;20026;-87
2024/03/25 08:19:09;;;;;;;20.60;9.20;;;;;;;;;;5051961;28;20394;-86
2024/03/25 08:21:35;;;;;;;22.55;9.68;;;;;;;;;;5036254;28;20062;-86
2024/03/25 08:24:00;;;;;;;15.00;8.38;;;;;;;;;;5036262;28;20074;-86
2024/03/25 08:26:26;;;;;;;18.38;8.88;;;;;;;;;;5036914;28;20613;-85
2024/03/25 08:28:51;;;;;;;18.10;8.98;;;;;;;;;;5054652;28;20442;-76
2024/03/25 08:31:16;;;;;;;18.10;8.77;;;;;;;;;;5037710;28;20056;-76
2024/03/25 08:33:42;;;;;;;16.63;8.57;;;;;;;;;;5054294;28;20089;-76
2024/03/25 08:36:07;;;;;;;20.25;7.82;;;;;;;;;;5036650;28;20035;-76
2024/03/25 08:38:33;;;;;;;20.90;7.97;;;;;;;;;;5030200;28;20036;-76
2024/03/25 08:40:58;;;;;;;15.57;7.70;;;;;;;;;;5028669;28;20387;-76
2024/03/25 08:43:24;;;;;;;15.25;7.93;;;;;;;;;;5045584;28;20036;-76
2024/03/25 08:45:49;;;;;;;19.05;7.05;;;;;;;;;;5038964;28;20017;-76
2024/03/25 08:48:15;;;;;;;19.35;7.43;;;;;;;;;;5047882;28;20028;-76
2024/03/25 08:50:40;;;;;;;12.27;6.57;;;;;;;;;;5040429;28;20029;-76
2024/03/25 08:53:05;;;;;;;21.00;7.00;;;;;;;;;;5025308;28;20040;-76
2024/03/25 08:55:31;;;;;;;18.42;6.38;;;;;;;;;;5049887;28;20039;-76
2024/03/25 08:57:58;;;;;;;13.63;5.75;;;;;;;;;;5035678;28;20429;-76
2024/03/25 09:00:24;;;;;;;19.13;6.35;;;;;;;;;;5053034;28;20032;-76
2024/03/25 09:02:50;;;;;;;17.67;6.72;;;;;;;;;;5053460;28;20116;-77
2024/03/25 09:05:18;;;;;;;18.30;6.65;;;;;;;;;;5035592;28;20029;-76
2024/03/25 09:07:44;;;;;;;15.30;5.97;;;;;;;;;;5036436;28;20029;-76
2024/03/25 09:12:53;;;;;;;15.40;6.32;;;;;;;;;;5052265;28;20027;-77
2024/03/25 09:15:19;;;;;;;11.18;5.55;;;;;;;;;;5036525;28;20021;-76
2024/03/25 09:17:44;;;;;;;14.05;5.60;;;;;;;;;;5050394;28;20033;-76
2024/03/25 09:20:16;;;;;;;15.80;6.80;;;;;;;;;;5035535;28;20467;-77
2024/03/25 09:22:45;;;;;;;14.63;6.97;;;;;;;;;;5028667;28;20021;-76
2024/03/25 09:25:11;;;;;;;19.02;6.72;;;;;;;;;;5044365;28;20057;-76
2024/03/25 09:27:37;;;;;;;15.52;7.07;;;;;;;;;;5048669;28;20134;-77
2024/03/25 09:30:07;;;;;;;17.98;7.25;;;;;;;;;;5035281;28;20029;-76
2024/03/25 09:32:32;;;;;;;17.00;7.10;;;;;;;;;;5052405;28;20475;-77
2024/03/25 09:34:58;;;;;;;16.95;7.68;;;;;;;;;;5052913;28;20029;-77
2024/03/25 09:37:23;;;;;;;15.07;7.18;;;;;;;;;;5035154;28;20025;-77
2024/03/25 09:39:49;;;;;;;16.13;7.32;;;;;;;;;;5046389;28;20168;-86
2024/03/25 09:42:19;;;;;;;17.35;8.23;;;;;;;;;;5038080;28;20044;-86
2024/03/25 09:44:44;;;;;;;15.38;8.00;;;;;;;;;;5032557;28;20051;-86
2024/03/25 09:47:12;;;;;;;14.95;7.82;;;;;;;;;;5031150;28;20033;-86
2024/03/25 09:49:40;;;;;;;18.55;8.20;;;;;;;;;;5051850;28;20028;-86
2024/03/25 09:52:06;;;;;;;17.95;7.63;;;;;;;;;;5029331;28;20100;-87
2024/03/25 09:54:32;;;;;;;14.95;7.45;;;;;;;;;;5049575;28;20063;-87
2024/03/25 09:56:58;;;;;;;12.80;7.60;;;;;;;;;;5031908;28;20020;-86
2024/03/25 09:59:23;;;;;;;15.27;7.88;;;;;;;;;;5045672;28;20029;-87
2024/03/25 10:01:49;;;;;;;13.85;7.80;;;;;;;;;;5051880;28;20021;-85
2024/03/25 10:04:15;;;;;;;16.98;8.15;;;;;;;;;;5034690;28;20076;-86
2024/03/25 10:06:41;;;;;;;16.70;8.45;;;;;;;;;;5052686;28;20593;-87
2024/03/25 10:09:07;;;;;;;17.15;8.45;;;;;;;;;;5047069;28;20021;-87
2024/03/25 10:11:35;;;;;;;14.80;6.72;;;;;;;;;;5046615;28;20467;-87
2024/03/25 10:14:01;;;;;;;12.45;6.25;;;;;;;;;;5044089;28;20032;-87
2024/03/25 10:16:27;;;;;;;14.38;6.35;;;;;;;;;;5043566;28;20020;-87
2024/03/25 10:18:53;;;;;;;12.23;6.25;;;;;;;;;;5043030;28;20029;-87
2024/03/25 10:21:21;;;;;;;11.65;5.72;;;;;;;;;;5046948;28;20037;-87
2024/03/25 10:23:48;;;;;;;11.27;4.65;;;;;;;;;;5034904;28;20021;-87
2024/03/25 10:26:31;;;;;;;12.18;4.05;;;;;;;;;;5042650;28;20386;-87
2024/03/25 10:29:00;;;;;;;14.05;4.78;;;;;;;;;;5033327;28;20044;-88
2024/03/25 10:31:26;;;;;;;11.82;4.85;;;;;;;;;;5034804;28;20490;-87
2024/03/25 10:33:52;;;;;;;15.77;5.63;;;;;;;;;;5052658;28;20036;-87
2024/03/25 10:36:19;;;;;;;13.80;5.65;;;;;;;;;;5049142;28;20025;-88
2024/03/25 10:38:46;;;;;;;13.70;6.07;;;;;;;;;;5032481;28;20044;-87
2024/03/25 10:41:16;;;;;;;15.05;5.95;;;;;;;;;;5046094;28;20112;-87
2024/03/25 10:43:45;;;;;;;13.00;5.45;;;;;;;;;;5049701;28;20495;-87
2024/03/25 10:46:12;;;;;;;14.65;6.35;;;;;;;;;;5034381;28;20029;-87
2024/03/25 10:48:40;;;;;;;14.45;6.40;;;;;;;;;;5034241;28;20048;-77
2024/03/25 10:51:09;;;;;;;15.20;6.45;;;;;;;;;;5048984;28;20035;-77
2024/03/25 10:53:36;;;;;;;10.25;5.75;;;;;;;;;;5047883;28;20029;-77
2024/03/25 10:56:04;;;;;;;15.25;5.70;;;;;;;;;;5038328;28;20029;-77
2024/03/25 10:58:31;;;;;;;15.73;5.82;;;;;;;;;;5033826;28;20479;-76
2024/03/25 11:00:57;;;;;;;13.70;6.68;;;;;;;;;;5048979;28;20018;-77
2024/03/25 11:03:23;;;;;;;15.38;6.40;;;;;;;;;;5048174;28;20083;-77
2024/03/25 11:05:49;;;;;;;9.65;5.05;;;;;;;;;;5041986;28;20379;-77
2024/03/25 11:08:16;;;;;;;9.57;4.82;;;;;;;;;;5046654;28;20029;-77
2024/03/25 11:10:48;;;;;;;9.95;3.92;;;;;;;;;;5041418;28;20050;-76
2024/03/25 11:13:18;;;;;;;7.88;3.85;;;;;;;;;;5045249;28;20116;-77
2024/03/25 11:15:44;;;;;;;10.43;4.20;;;;;;;;;;5051881;28;20065;-76
2024/03/25 11:18:13;;;;;;;10.25;3.97;;;;;;;;;;5048007;28;20027;-77
2024/03/25 11:20:39;;;;;;;9.35;3.83;;;;;;;;;;5033967;28;20033;-77
2024/03/25 11:23:12;;;;;;;8.00;3.75;;;;;;;;;;5046245;28;20032;-77
2024/03/25 11:25:38;;;;;;;8.10;3.40;;;;;;;;;;5049820;28;20037;-76
2024/03/25 11:28:04;;;;;;;8.05;3.50;;;;;;;;;;5051277;28;20033;-77
2024/03/25 11:30:31;;;;;;;7.75;3.75;;;;;;;;;;5033441;28;20036;-77
2024/03/25 11:32:58;;;;;;;9.95;3.47;;;;;;;;;;5041420;28;20095;-75
2024/03/25 11:35:23;;;;;;;6.38;3.22;;;;;;;;;;5040283;28;20021;-77
2024/03/25 11:37:50;;;;;;;10.95;3.75;;;;;;;;;;5038935;28;20025;-77
2024/03/25 11:40:15;;;;;;;7.97;3.40;;;;;;;;;;5042065;28;20025;-77
2024/03/25 11:42:42;;;;;;;7.75;3.95;;;;;;;;;;5032469;28;20032;-76
2024/03/25 11:45:17;;;;;;;9.10;4.03;;;;;;;;;;5050431;28;20028;-77
2024/03/25 11:47:43;;;;;;;8.13;4.03;;;;;;;;;;5049764;28;20032;-77
2024/03/25 11:50:11;;;;;;;7.53;3.58;;;;;;;;;;5033161;28;20025;-77
2024/03/25 11:52:36;;;;;;;10.10;3.90;;;;;;;;;;5028654;28;20091;-77
2024/03/25 11:55:02;;;;;;;10.90;3.78;;;;;;;;;;5044578;28;20021;-77
2024/03/25 11:57:28;;;;;;;12.63;4.57;;;;;;;;;;5033892;28;20024;-77
2024/03/25 11:59:54;;;;;;;8.48;3.47;;;;;;;;;;5036435;28;20447;-88
2024/03/25 12:02:19;;;;;;;8.77;3.70;;;;;;;;;;5042253;28;20541;-87
2024/03/25 12:04:45;;;;;;;6.47;3.13;;;;;;;;;;5030567;28;20478;-87
2024/03/25 12:07:14;;;;;;;9.05;4.10;;;;;;;;;;5038974;28;20029;-86
2024/03/25 12:12:25;;;;;;;9.07;4.13;;;;;;;;;;5048288;28;20027;-87
2024/03/25 12:14:52;;;;;;;10.98;4.55;;;;;;;;;;5033093;28;20095;-87
2024/03/25 12:17:18;;;;;;;10.30;5.07;;;;;;;;;;5031833;28;20017;-88
2024/03/25 12:19:43;;;;;;;10.75;4.22;;;;;;;;;;5031182;28;20032;-86
2024/03/25 12:22:09;;;;;;;9.23;4.15;;;;;;;;;;5050285;28;20029;-87
2024/03/25 12:24:34;;;;;;;8.00;4.43;;;;;;;;;;5045323;28;20395;-86
2024/03/25 12:27:00;;;;;;;7.55;4.15;;;;;;;;;;5034446;28;20021;-86
2024/03/25 12:29:26;;;;;;;8.63;4.10;;;;;;;;;;5036649;28;20028;-86
2024/03/25 12:31:55;;;;;;;8.57;4.20;;;;;;;;;;5044718;28;20021;-87
2024/03/25 12:34:20;;;;;;;7.43;4.13;;;;;;;;;;5050640;28;20403;-87
2024/03/25 12:36:48;;;;;;;7.95;3.65;;;;;;;;;;5040804;28;20044;-86
2024/03/25 12:39:20;;;;;;;9.80;3.90;;;;;;;;;;5031637;28;20025;-87
2024/03/25 12:41:45;;;;;;;8.90;3.65;;;;;;;;;;5041894;28;20040;-87
2024/03/25 12:44:14;;;;;;;9.38;3.95;;;;;;;;;;5036747;28;20025;-87
2024/03/25 12:46:39;;;;;;;8.48;3.30;;;;;;;;;;5054992;28;20034;-86
2024/03/25 12:49:07;;;;;;;5.90;3.10;;;;;;;;;;5050529;28;20028;-86
2024/03/25 12:51:33;;;;;;;9.13;3.30;;;;;;;;;;5053731;28;20009;-86
2024/03/25 12:53:58;;;;;;;5.90;3.20;;;;;;;;;;5041707;28;20036;-86
2024/03/25 12:56:24;;;;;;;8.27;3.55;;;;;;;;;;5053695;28;20021;-88
2024/03/25 12:58:50;;;;;;;6.18;3.28;;;;;;;;;;5036985;28;20201;-87
2024/03/25 13:01:16;;;;;;;8.07;2.85;;;;;;;;;;5051931;28;20029;-85
2024/03/25 13:03:41;;;;;;;7.55;2.95;;;;;;;;;;5042337;28;20033;-83
2024/03/25 13:06:07;;;;;;;6.45;2.88;;;;;;;;;;5032878;28;20402;-83
2024/03/25 13:08:32;;;;;;;6.40;3.15;;;;;;;;;;5031679;28;20033;-83
2024/03/25 13:10:58;;;;;;;6.93;3.10;;;;;;;;;;5037458;28;20039;-83
2024/03/25 13:13:23;;;;;;;7.75;3.30;;;;;;;;;;5036085;28;20033;-83
2024/03/25 13:15:49;;;;;;;9.60;3.35;;;;;;;;;;5051894;28;20125;-84
2024/03/25 13:18:14;;;;;;;6.85;3.60;;;;;;;;;;5043366;28;20490;-84
2024/03/25 13:20:40;;;;;;;7.28;3.30;;;;;;;;;;5040899;28;20033;-83
2024/03/25 13:23:05;;;;;;;7.03;3.05;;;;;;;;;;5034378;28;20032;-84
2024/03/25 13:25:31;;;;;;;7.78;3.47;;;;;;;;;;5035576;28;20033;-83
2024/03/25 13:27:56;;;;;;;8.93;3.03;;;;;;;;;;5039828;28;20018;-83
2024/03/25 13:30:24;;;;;;;6.75;3.15;;;;;;;;;;5034343;28;20028;-83
2024/03/25 13:32:50;;;;;;;4.97;2.90;;;;;;;;;;5045006;28;20017;-83
2024/03/25 13:35:15;;;;;;;7.40;3.10;;;;;;;;;;5036369;28;20032;-84
2024/03/25 13:37:41;;;;;;;6.55;2.90;;;;;;;;;;5044168;28;20033;-83
2024/03/25 13:40:08;;;;;;;7.03;3.22;;;;;;;;;;5031008;28;20028;-83
2024/03/25 13:42:34;;;;;;;6.95;2.78;;;;;;;;;;5022910;28;20539;-83
2024/03/25 13:44:59;;;;;;;5.85;2.63;;;;;;;;;;5052640;28;20039;-83
2024/03/25 13:47:25;;;;;;;6.75;2.60;;;;;;;;;;5052821;28;20033;-83
2024/03/25 13:50:00;;;;;;;7.07;2.75;;;;;;;;;;5046588;28;20021;-83
2024/03/25 13:52:25;;;;;;;7.35;2.80;;;;;;;;;;5047085;28;20052;-83
2024/03/25 13:54:50;;;;;;;5.50;3.15;;;;;;;;;;5035154;28;20048;-83
2024/03/25 13:57:16;;;;;;;9.05;3.38;;;;;;;;;;5050629;28;20051;-83
2024/03/25 13:59:41;;;;;;;6.82;2.97;;;;;;;;;;5031209;28;20025;-83
2024/03/25 14:02:07;;;;;;;6.50;3.03;;;;;;;;;;5033709;28;20025;-83
2024/03/25 14:04:33;;;;;;;7.25;2.95;;;;;;;;;;5034822;28;20032;-83
2024/03/25 14:06:58;;;;;;;7.07;3.28;;;;;;;;;;5041886;28;20082;-83
2024/03/25 14:09:24;;;;;;;6.63;2.88;;;;;;;;;;5052455;28;20029;-83
2024/03/25 14:11:50;;;;;;;7.47;2.92;;;;;;;;;;5034562;28;20410;-82
2024/03/25 14:14:15;;;;;;;7.60;3.38;;;;;;;;;;5048675;28;20029;-83
2024/03/25 14:16:41;;;;;;;7.13;2.47;;;;;;;;;;5034768;28;20039;-83
2024/03/25 14:19:06;;;;;;;7.22;2.60;;;;;;;;;;5035115;28;20115;-77
2024/03/25 14:21:31;;;;;;;5.55;2.22;;;;;;;;;;5034985;28;20032;-77
2024/03/25 14:23:57;;;;;;;6.00;2.38;;;;;;;;;;5030561;28;20116;-77
2024/03/25 14:26:22;;;;;;;7.38;3.10;;;;;;;;;;5021054;28;20044;-77
2024/03/25 14:28:48;;;;;;;6.28;3.40;;;;;;;;;;5049906;28;20091;-77
2024/03/25 14:31:13;;;;;;;9.00;3.63;;;;;;;;;;5036503;28;20043;-77
2024/03/25 14:33:38;;;;;;;8.75;3.60;;;;;;;;;;5026961;28;20386;-77